Time;durP1;ratioP1;P1;durP2;ratioP2;P2;SDS_P1;SDS_P2;PMS_P1;PMS_P2;Temp;Humidity;BMP_temperature;BMP_pressure;BME280_temperature;BME280_humidity;BME280_pressure;Samples;Min_cycle;Max_cycle;Signal;HPM_P1;HPM_P2
2023/12/29 00:00:16;;;;;;;22.73;4.00;;;;;;;;;;5054370;28;20297;-60
2023/12/29 00:02:41;;;;;;;10.47;2.20;;;;;;;;;;5054834;28;20277;-59
2023/12/29 00:05:07;;;;;;;9.25;2.53;;;;;;;;;;5063281;28;20040;-58
2023/12/29 00:07:32;;;;;;;11.03;2.03;;;;;;;;;;5053966;28;20029;-59
2023/12/29 00:09:58;;;;;;;7.33;2.00;;;;;;;;;;5054191;28;20334;-56
2023/12/29 00:12:23;;;;;;;11.73;2.30;;;;;;;;;;5056979;28;20169;-58
2023/12/29 00:14:48;;;;;;;19.93;3.87;;;;;;;;;;5062225;28;20460;-56
2023/12/29 00:17:14;;;;;;;10.75;2.10;;;;;;;;;;5062078;28;20088;-60
2023/12/29 00:19:39;;;;;;;11.90;3.37;;;;;;;;;;5064698;28;20040;-60
2023/12/29 00:22:05;;;;;;;13.25;2.80;;;;;;;;;;5058347;28;20456;-54
2023/12/29 00:24:34;;;;;;;14.95;2.40;;;;;;;;;;5058680;28;20033;-57
2023/12/29 00:26:59;;;;;;;9.17;2.20;;;;;;;;;;5058057;28;20033;-55
2023/12/29 00:29:25;;;;;;;13.67;3.23;;;;;;;;;;5057786;28;20293;-56
2023/12/29 00:31:50;;;;;;;17.27;2.83;;;;;;;;;;5057512;28;20282;-55
2023/12/29 00:34:16;;;;;;;14.40;2.93;;;;;;;;;;5067711;28;20285;-57
2023/12/29 00:36:41;;;;;;;11.87;2.13;;;;;;;;;;5057940;28;20345;-57
2023/12/29 00:39:07;;;;;;;14.65;1.80;;;;;;;;;;5057016;28;20025;-54
2023/12/29 00:41:32;;;;;;;14.20;2.05;;;;;;;;;;5057189;28;20041;-55
2023/12/29 00:43:58;;;;;;;16.40;3.17;;;;;;;;;;5065380;28;20033;-54
2023/12/29 00:46:23;;;;;;;12.50;2.27;;;;;;;;;;5057476;28;20037;-55
2023/12/29 00:48:49;;;;;;;11.45;3.03;;;;;;;;;;5057554;28;20582;-52
2023/12/29 00:51:14;;;;;;;16.80;2.67;;;;;;;;;;5056734;28;20040;-56
2023/12/29 00:53:39;;;;;;;13.37;2.60;;;;;;;;;;5062879;28;20033;-54
2023/12/29 00:56:11;;;;;;;15.70;3.37;;;;;;;;;;5058137;28;20089;-55
2023/12/29 00:58:38;;;;;;;15.90;2.10;;;;;;;;;;5056616;28;20037;-54
2023/12/29 01:01:05;;;;;;;11.45;2.10;;;;;;;;;;5056452;28;20333;-54
2023/12/29 01:03:30;;;;;;;10.20;2.33;;;;;;;;;;5060189;28;20044;-57
2023/12/29 01:05:56;;;;;;;13.53;3.07;;;;;;;;;;5056444;28;20267;-52
2023/12/29 01:08:22;;;;;;;17.02;3.17;;;;;;;;;;5056991;28;20041;-55
2023/12/29 01:10:48;;;;;;;13.83;2.67;;;;;;;;;;5056339;28;20030;-54
2023/12/29 01:13:13;;;;;;;14.10;3.97;;;;;;;;;;5056522;28;20283;-56
2023/12/29 01:15:40;;;;;;;9.57;2.80;;;;;;;;;;5064067;28;20026;-55
2023/12/29 01:18:06;;;;;;;12.00;2.07;;;;;;;;;;5056960;28;20025;-56
2023/12/29 01:20:32;;;;;;;10.82;3.47;;;;;;;;;;5056897;28;20254;-54
2023/12/29 01:22:58;;;;;;;14.63;2.83;;;;;;;;;;5055862;28;20080;-58
2023/12/29 01:25:24;;;;;;;10.10;1.97;;;;;;;;;;5061945;28;20033;-55
2023/12/29 01:27:49;;;;;;;10.75;3.00;;;;;;;;;;5060706;28;20017;-56
2023/12/29 01:30:15;;;;;;;15.15;3.03;;;;;;;;;;5064133;28;20052;-56
2023/12/29 01:32:40;;;;;;;10.47;2.63;;;;;;;;;;5055214;28;20027;-56
2023/12/29 01:35:06;;;;;;;15.43;2.45;;;;;;;;;;5058553;28;20029;-53
2023/12/29 01:37:31;;;;;;;16.00;2.30;;;;;;;;;;5057163;28;20144;-56
2023/12/29 01:39:56;;;;;;;12.63;1.90;;;;;;;;;;5064785;28;20056;-55
2023/12/29 01:42:22;;;;;;;14.13;2.78;;;;;;;;;;5043290;28;20029;-57
2023/12/29 01:44:52;;;;;;;13.80;2.10;;;;;;;;;;5066503;28;20063;-53
2023/12/29 01:47:17;;;;;;;9.03;1.70;;;;;;;;;;5057023;28;20333;-55
2023/12/29 01:49:48;;;;;;;5.75;2.20;;;;;;;;;;5042227;28;20643;-57
2023/12/29 01:52:14;;;;;;;18.83;3.10;;;;;;;;;;5055737;28;20025;-56
2023/12/29 01:54:42;;;;;;;9.13;1.45;;;;;;;;;;5059857;28;20274;-56
2023/12/29 01:57:08;;;;;;;8.07;1.40;;;;;;;;;;5055874;28;20033;-53
2023/12/29 01:59:34;;;;;;;6.82;1.55;;;;;;;;;;5055328;28;20267;-53
2023/12/29 02:02:00;;;;;;;6.75;2.20;;;;;;;;;;5055396;28;20057;-56
2023/12/29 02:04:26;;;;;;;8.63;2.38;;;;;;;;;;5055471;28;20040;-55
2023/12/29 02:06:52;;;;;;;9.82;2.50;;;;;;;;;;5055635;28;20072;-49
2023/12/29 02:09:18;;;;;;;18.10;3.55;;;;;;;;;;5055305;28;20029;-54
2023/12/29 02:11:47;;;;;;;16.60;2.53;;;;;;;;;;5056224;28;20036;-54
2023/12/29 02:14:13;;;;;;;12.83;2.30;;;;;;;;;;5058341;28;20075;-56
2023/12/29 02:16:45;;;;;;;11.00;2.87;;;;;;;;;;5055029;28;20259;-55
2023/12/29 02:19:30;;;;;;;12.07;2.00;;;;;;;;;;5055236;28;20353;-54
2023/12/29 02:21:55;;;;;;;9.87;2.20;;;;;;;;;;5055802;28;20258;-56
2023/12/29 02:24:21;;;;;;;13.57;2.40;;;;;;;;;;5054996;28;20285;-53
2023/12/29 02:26:49;;;;;;;15.13;2.30;;;;;;;;;;5055324;28;20290;-56
2023/12/29 02:29:17;;;;;;;14.87;2.83;;;;;;;;;;5062334;28;20093;-51
2023/12/29 02:31:47;;;;;;;9.00;2.53;;;;;;;;;;5054770;28;20326;-54
2023/12/29 02:34:13;;;;;;;11.73;2.90;;;;;;;;;;5055094;28;20301;-57
2023/12/29 02:36:42;;;;;;;20.70;3.75;;;;;;;;;;5062637;28;20262;-56
2023/12/29 02:39:11;;;;;;;15.50;2.30;;;;;;;;;;5054337;28;20038;-55
2023/12/29 02:41:39;;;;;;;13.37;3.00;;;;;;;;;;5054596;28;20274;-54
2023/12/29 02:44:05;;;;;;;10.87;2.40;;;;;;;;;;5055379;28;20262;-55
2023/12/29 02:46:31;;;;;;;17.00;3.20;;;;;;;;;;5057154;28;20258;-54
2023/12/29 02:48:56;;;;;;;8.80;2.45;;;;;;;;;;5054991;28;20033;-54
2023/12/29 02:51:22;;;;;;;12.03;2.33;;;;;;;;;;5055154;28;20026;-54
2023/12/29 02:53:48;;;;;;;7.50;2.03;;;;;;;;;;5055577;28;20255;-55
2023/12/29 02:56:14;;;;;;;6.45;1.75;;;;;;;;;;5053971;28;20273;-54
2023/12/29 02:58:39;;;;;;;13.90;1.87;;;;;;;;;;5054774;28;20037;-56
2023/12/29 03:01:05;;;;;;;12.90;2.42;;;;;;;;;;5066281;28;20061;-54
2023/12/29 03:03:30;;;;;;;11.63;1.80;;;;;;;;;;5055167;28;20049;-55
2023/12/29 03:05:55;;;;;;;17.90;3.20;;;;;;;;;;5056823;28;20040;-54
2023/12/29 03:08:21;;;;;;;17.50;3.13;;;;;;;;;;5054302;28;20037;-53
2023/12/29 03:10:47;;;;;;;10.45;2.22;;;;;;;;;;5054070;28;20029;-51
2023/12/29 03:13:12;;;;;;;8.47;2.10;;;;;;;;;;5053953;28;20041;-55
2023/12/29 03:15:37;;;;;;;15.80;2.83;;;;;;;;;;5060974;28;20274;-57
2023/12/29 03:18:03;;;;;;;12.05;2.38;;;;;;;;;;5054980;28;20033;-55
2023/12/29 03:20:28;;;;;;;11.63;2.17;;;;;;;;;;5053503;28;20034;-55
2023/12/29 03:22:55;;;;;;;13.30;3.22;;;;;;;;;;5054205;28;20032;-54
2023/12/29 03:25:20;;;;;;;15.98;2.58;;;;;;;;;;5059931;28;20036;-57
2023/12/29 03:27:46;;;;;;;18.80;2.20;;;;;;;;;;5053211;28;20093;-55
2023/12/29 03:30:11;;;;;;;14.35;2.33;;;;;;;;;;5056924;28;20112;-58
2023/12/29 03:32:37;;;;;;;19.35;3.55;;;;;;;;;;5054048;28;20033;-56
2023/12/29 03:35:03;;;;;;;12.05;2.53;;;;;;;;;;5056980;28;20063;-58
2023/12/29 03:37:29;;;;;;;19.30;4.00;;;;;;;;;;5070424;28;20025;-56
2023/12/29 03:39:54;;;;;;;14.18;3.03;;;;;;;;;;5054639;28;20117;-53
2023/12/29 03:42:19;;;;;;;18.37;3.17;;;;;;;;;;5054663;28;20033;-54
2023/12/29 03:44:45;;;;;;;14.10;3.10;;;;;;;;;;5050140;28;20044;-53
2023/12/29 03:47:10;;;;;;;16.53;2.77;;;;;;;;;;5054527;28;20045;-56
2023/12/29 03:49:36;;;;;;;16.95;2.45;;;;;;;;;;5059732;28;20029;-57
2023/12/29 03:52:01;;;;;;;23.20;4.73;;;;;;;;;;5054793;28;20076;-55
2023/12/29 03:54:26;;;;;;;27.03;3.87;;;;;;;;;;5053428;28;20263;-55
2023/12/29 03:56:52;;;;;;;17.58;3.55;;;;;;;;;;5064273;28;20028;-57
2023/12/29 03:59:18;;;;;;;14.85;3.00;;;;;;;;;;5054131;28;20107;-54
2023/12/29 04:01:44;;;;;;;14.70;3.13;;;;;;;;;;5053615;28;20102;-57
2023/12/29 04:04:09;;;;;;;21.20;4.13;;;;;;;;;;5053548;28;20065;-56
2023/12/29 04:06:35;;;;;;;24.65;4.03;;;;;;;;;;5059884;28;20036;-53
2023/12/29 04:09:00;;;;;;;14.63;3.50;;;;;;;;;;5052002;28;20097;-56
2023/12/29 04:11:26;;;;;;;17.83;3.50;;;;;;;;;;5049616;28;20294;-55
2023/12/29 04:13:51;;;;;;;16.15;3.47;;;;;;;;;;5054157;28;20033;-55
2023/12/29 04:16:18;;;;;;;14.87;2.60;;;;;;;;;;5062494;28;20034;-58
2023/12/29 04:18:43;;;;;;;19.15;3.33;;;;;;;;;;5053311;28;20262;-54
2023/12/29 04:21:13;;;;;;;12.43;3.47;;;;;;;;;;5053419;28;20037;-53
2023/12/29 04:23:38;;;;;;;15.63;2.87;;;;;;;;;;5054256;28;20061;-54
2023/12/29 04:26:04;;;;;;;21.10;3.15;;;;;;;;;;5054333;28;20293;-54
2023/12/29 04:28:30;;;;;;;27.27;4.07;;;;;;;;;;5053060;28;20025;-54
2023/12/29 04:30:56;;;;;;;11.27;3.00;;;;;;;;;;5054275;28;20025;-57
2023/12/29 04:33:21;;;;;;;22.93;3.80;;;;;;;;;;5053356;28;20039;-54
2023/12/29 04:35:49;;;;;;;21.40;3.23;;;;;;;;;;5055402;28;20089;-52
2023/12/29 04:38:16;;;;;;;15.90;2.78;;;;;;;;;;5054126;28;20263;-52
2023/12/29 04:40:42;;;;;;;11.93;2.87;;;;;;;;;;5081362;28;20044;-58
2023/12/29 04:43:07;;;;;;;12.57;3.20;;;;;;;;;;5054757;28;20287;-51
2023/12/29 04:45:33;;;;;;;19.27;3.00;;;;;;;;;;5053888;28;20034;-53
2023/12/29 04:47:58;;;;;;;14.00;2.90;;;;;;;;;;5053676;28;20469;-54
2023/12/29 04:50:24;;;;;;;18.52;2.85;;;;;;;;;;5053755;28;20121;-53
2023/12/29 04:52:49;;;;;;;18.63;2.57;;;;;;;;;;5054018;28;20068;-57
2023/12/29 04:55:15;;;;;;;26.37;3.23;;;;;;;;;;5053904;28;20293;-61
2023/12/29 04:57:40;;;;;;;21.43;2.83;;;;;;;;;;5061204;28;20333;-57
2023/12/29 05:00:06;;;;;;;20.67;2.42;;;;;;;;;;5057877;28;20095;-56
2023/12/29 05:02:32;;;;;;;48.95;4.22;;;;;;;;;;5054603;28;20049;-55
2023/12/29 05:04:58;;;;;;;10.35;2.42;;;;;;;;;;5047379;28;20026;-52
2023/12/29 05:07:24;;;;;;;11.90;2.80;;;;;;;;;;5068841;28;20033;-55
2023/12/29 05:09:49;;;;;;;11.57;2.37;;;;;;;;;;5057454;28;20278;-53
2023/12/29 05:12:14;;;;;;;19.03;4.27;;;;;;;;;;5057102;28;20052;-56
2023/12/29 05:14:40;;;;;;;20.73;3.25;;;;;;;;;;5057503;28;20029;-55
2023/12/29 05:17:05;;;;;;;22.07;3.60;;;;;;;;;;5065971;28;20055;-55
2023/12/29 05:19:30;;;;;;;17.37;2.80;;;;;;;;;;5057241;28;20025;-50
2023/12/29 05:21:56;;;;;;;21.07;4.60;;;;;;;;;;5059338;28;20029;-50
2023/12/29 05:24:21;;;;;;;14.48;2.65;;;;;;;;;;5057141;28;20033;-51
2023/12/29 05:26:47;;;;;;;27.37;4.67;;;;;;;;;;5062557;28;20035;-54
2023/12/29 05:29:12;;;;;;;16.73;2.55;;;;;;;;;;5057088;28;20033;-55
2023/12/29 05:31:37;;;;;;;22.47;4.37;;;;;;;;;;5057012;28;20057;-56
2023/12/29 05:34:03;;;;;;;22.00;3.25;;;;;;;;;;5057010;28;20029;-52
2023/12/29 05:36:29;;;;;;;25.17;3.40;;;;;;;;;;5059372;28;20033;-55
2023/12/29 05:38:55;;;;;;;17.67;2.90;;;;;;;;;;5057184;28;20353;-53
2023/12/29 05:41:21;;;;;;;27.00;3.33;;;;;;;;;;5056566;28;20330;-56
2023/12/29 05:43:47;;;;;;;11.67;3.20;;;;;;;;;;5057009;28;20261;-55
2023/12/29 05:46:12;;;;;;;19.97;4.20;;;;;;;;;;5056644;28;20262;-57
2023/12/29 05:48:38;;;;;;;17.88;2.88;;;;;;;;;;5056686;28;20056;-55
2023/12/29 05:51:08;;;;;;;15.85;2.47;;;;;;;;;;5056851;28;20026;-53
2023/12/29 05:53:34;;;;;;;23.50;4.47;;;;;;;;;;5056486;28;20063;-55
2023/12/29 05:55:59;;;;;;;8.33;2.03;;;;;;;;;;5056630;28;20270;-56
2023/12/29 05:58:25;;;;;;;17.90;3.77;;;;;;;;;;5068464;28;20255;-53
2023/12/29 06:00:50;;;;;;;11.60;3.13;;;;;;;;;;5054061;28;20026;-54
2023/12/29 06:03:16;;;;;;;18.65;2.88;;;;;;;;;;5055958;28;20033;-56
2023/12/29 06:05:41;;;;;;;16.00;2.47;;;;;;;;;;5056524;28;20029;-54
2023/12/29 06:08:07;;;;;;;23.13;3.25;;;;;;;;;;5056267;28;20038;-56
2023/12/29 06:10:32;;;;;;;27.33;4.00;;;;;;;;;;5056271;28;20188;-55
2023/12/29 06:12:58;;;;;;;13.27;2.73;;;;;;;;;;5056118;28;20262;-52
2023/12/29 06:15:23;;;;;;;13.70;2.97;;;;;;;;;;5055919;28;20029;-55
2023/12/29 06:17:49;;;;;;;17.73;2.97;;;;;;;;;;5062516;28;20032;-51
2023/12/29 06:20:14;;;;;;;17.10;2.20;;;;;;;;;;5056199;28;20270;-56
2023/12/29 06:22:42;;;;;;;7.00;1.93;;;;;;;;;;5056124;28;20297;-53
2023/12/29 06:25:09;;;;;;;18.97;3.40;;;;;;;;;;5056095;28;20030;-55
2023/12/29 06:27:37;;;;;;;13.07;2.15;;;;;;;;;;5058556;28;20365;-53
2023/12/29 06:30:04;;;;;;;19.13;3.03;;;;;;;;;;5055666;28;20052;-54
2023/12/29 06:32:29;;;;;;;13.83;2.60;;;;;;;;;;5055103;28;20266;-55
2023/12/29 06:34:55;;;;;;;14.20;2.57;;;;;;;;;;5055880;28;20255;-51
2023/12/29 06:37:20;;;;;;;8.97;2.07;;;;;;;;;;5055714;28;20267;-53
2023/12/29 06:39:45;;;;;;;16.40;2.20;;;;;;;;;;5055683;28;20042;-51
2023/12/29 06:42:11;;;;;;;14.10;2.53;;;;;;;;;;5054927;28;20033;-60
2023/12/29 06:44:37;;;;;;;12.13;2.37;;;;;;;;;;5055638;28;20044;-54
2023/12/29 06:47:04;;;;;;;19.37;2.37;;;;;;;;;;5058250;28;20276;-56
2023/12/29 06:49:30;;;;;;;24.60;2.93;;;;;;;;;;5062340;28;20121;-56
2023/12/29 06:51:55;;;;;;;11.73;2.50;;;;;;;;;;5055274;28;20262;-54
2023/12/29 06:54:21;;;;;;;20.75;3.17;;;;;;;;;;5055361;28;20034;-55
2023/12/29 06:56:48;;;;;;;9.17;2.90;;;;;;;;;;5055281;28;20064;-55
2023/12/29 06:59:13;;;;;;;16.37;3.10;;;;;;;;;;5048211;28;20025;-57
2023/12/29 07:01:39;;;;;;;9.10;2.27;;;;;;;;;;5061246;28;20308;-53
2023/12/29 07:04:05;;;;;;;20.27;4.83;;;;;;;;;;5059534;28;20041;-54
2023/12/29 07:06:31;;;;;;;20.73;3.30;;;;;;;;;;5055327;28;20274;-52
2023/12/29 07:08:56;;;;;;;22.60;3.00;;;;;;;;;;5056156;28;20041;-53
2023/12/29 07:11:22;;;;;;;8.77;3.07;;;;;;;;;;5055186;28;20335;-54
2023/12/29 07:13:47;;;;;;;25.92;3.28;;;;;;;;;;5055086;28;20262;-52
2023/12/29 07:16:13;;;;;;;10.83;2.87;;;;;;;;;;5055203;28;20093;-53
2023/12/29 07:18:38;;;;;;;16.77;3.47;;;;;;;;;;5065841;28;20266;-52
2023/12/29 07:21:04;;;;;;;21.95;4.47;;;;;;;;;;5055274;28;20053;-54
2023/12/29 07:23:29;;;;;;;21.83;3.50;;;;;;;;;;5054803;28;20057;-53
2023/12/29 07:25:55;;;;;;;15.57;3.50;;;;;;;;;;5054835;28;20041;-53
2023/12/29 07:28:20;;;;;;;19.93;4.57;;;;;;;;;;5064800;28;20272;-51
2023/12/29 07:30:45;;;;;;;14.10;3.47;;;;;;;;;;5055201;28;20270;-55
2023/12/29 07:33:11;;;;;;;23.75;3.60;;;;;;;;;;5059769;28;20030;-57
2023/12/29 07:35:37;;;;;;;29.30;4.10;;;;;;;;;;5054486;28;20033;-53
2023/12/29 07:38:02;;;;;;;18.33;3.87;;;;;;;;;;5060664;28;20266;-54
2023/12/29 07:40:28;;;;;;;20.45;3.90;;;;;;;;;;5055619;28;20138;-54
2023/12/29 07:42:53;;;;;;;13.50;3.67;;;;;;;;;;5054869;28;20128;-50
2023/12/29 07:45:19;;;;;;;25.27;3.97;;;;;;;;;;5054668;28;20029;-52
2023/12/29 07:47:44;;;;;;;22.93;3.47;;;;;;;;;;5058076;28;20273;-54
2023/12/29 07:50:10;;;;;;;21.80;4.85;;;;;;;;;;5056278;28;20045;-55
2023/12/29 07:52:35;;;;;;;17.05;5.10;;;;;;;;;;5054797;28;20064;-53
2023/12/29 07:55:01;;;;;;;19.33;4.80;;;;;;;;;;5054616;28;20045;-55
2023/12/29 07:57:26;;;;;;;15.82;3.80;;;;;;;;;;5054695;28;20040;-55
2023/12/29 07:59:52;;;;;;;11.90;4.73;;;;;;;;;;5054657;28;20034;-53
2023/12/29 08:02:17;;;;;;;10.68;3.83;;;;;;;;;;5061650;28;20119;-53
2023/12/29 08:04:46;;;;;;;16.10;3.87;;;;;;;;;;5055992;28;20025;-52
2023/12/29 08:07:13;;;;;;;10.27;4.00;;;;;;;;;;5054717;28;20029;-50
2023/12/29 08:09:38;;;;;;;13.63;4.27;;;;;;;;;;5054505;28;20347;-52
2023/12/29 08:12:04;;;;;;;18.98;4.32;;;;;;;;;;5057765;28;20036;-57
2023/12/29 08:14:29;;;;;;;9.97;4.13;;;;;;;;;;5051980;28;20037;-56
2023/12/29 08:16:56;;;;;;;10.43;3.77;;;;;;;;;;5054284;28;20041;-54
2023/12/29 08:19:22;;;;;;;16.10;5.07;;;;;;;;;;5062817;28;20282;-53
2023/12/29 08:21:48;;;;;;;17.50;3.90;;;;;;;;;;5053895;28;20266;-54
2023/12/29 08:24:14;;;;;;;14.70;5.30;;;;;;;;;;5054047;28;20326;-54
2023/12/29 08:26:48;;;;;;;11.70;3.75;;;;;;;;;;5054478;28;20045;-54
2023/12/29 08:29:14;;;;;;;13.23;3.60;;;;;;;;;;5059467;28;20123;-56
2023/12/29 08:31:39;;;;;;;17.10;4.00;;;;;;;;;;5055694;28;20274;-55
2023/12/29 08:34:05;;;;;;;11.10;3.20;;;;;;;;;;5058487;28;20040;-54
2023/12/29 08:36:30;;;;;;;12.18;3.47;;;;;;;;;;5057196;28;20219;-52
2023/12/29 08:38:56;;;;;;;11.55;4.05;;;;;;;;;;5060273;28;20033;-55
2023/12/29 08:41:22;;;;;;;10.15;3.40;;;;;;;;;;5057761;28;20047;-53
2023/12/29 08:43:48;;;;;;;17.58;4.15;;;;;;;;;;5066922;28;20029;-52
2023/12/29 08:46:13;;;;;;;16.30;5.35;;;;;;;;;;5057676;28;20040;-55
2023/12/29 08:48:38;;;;;;;11.83;3.53;;;;;;;;;;5057829;28;20042;-55
2023/12/29 08:51:04;;;;;;;12.75;3.72;;;;;;;;;;5057849;28;20393;-51
2023/12/29 08:53:33;;;;;;;13.67;4.17;;;;;;;;;;5064377;28;20044;-49
2023/12/29 08:55:59;;;;;;;10.13;2.87;;;;;;;;;;5057702;28;20033;-52
2023/12/29 08:58:24;;;;;;;8.23;2.73;;;;;;;;;;5060368;28;20325;-52
2023/12/29 09:00:50;;;;;;;9.53;2.90;;;;;;;;;;5064438;28;20254;-53
2023/12/29 09:03:15;;;;;;;7.03;2.30;;;;;;;;;;5057558;28;20040;-57
2023/12/29 09:05:41;;;;;;;5.53;1.97;;;;;;;;;;5057747;28;20039;-54
2023/12/29 09:08:06;;;;;;;6.57;2.20;;;;;;;;;;5057533;28;20270;-51
2023/12/29 09:10:32;;;;;;;6.53;2.23;;;;;;;;;;5063879;28;20278;-51
2023/12/29 09:12:58;;;;;;;10.10;2.77;;;;;;;;;;5051588;28;20026;-51
2023/12/29 09:15:24;;;;;;;7.95;1.98;;;;;;;;;;5050562;28;20282;-50
2023/12/29 09:17:49;;;;;;;5.53;2.40;;;;;;;;;;5057124;28;20025;-51
2023/12/29 09:20:16;;;;;;;5.60;2.43;;;;;;;;;;5060918;28;20263;-56
2023/12/29 09:22:41;;;;;;;;;;;;;;;;;;5057647;28;20030;-55
2023/12/29 09:25:06;;;;;;;5.67;1.70;;;;;;;;;;5057227;28;20007;-55
2023/12/29 09:27:33;;;;;;;9.15;1.75;;;;;;;;;;5057230;28;20030;-53
2023/12/29 09:29:58;;;;;;;6.53;2.65;;;;;;;;;;5065337;28;20037;-54
2023/12/29 09:32:24;;;;;;;6.33;2.13;;;;;;;;;;5057213;28;20029;-55
2023/12/29 09:34:49;;;;;;;7.70;1.98;;;;;;;;;;5057028;28;20026;-52
2023/12/29 09:37:15;;;;;;;2.83;1.48;;;;;;;;;;5057058;28;20053;-52
2023/12/29 09:39:41;;;;;;;6.40;1.70;;;;;;;;;;5062345;28;20033;-54
2023/12/29 09:42:06;;;;;;;;;;;;;;;;;;5057306;28;20040;-54
2023/12/29 09:44:35;;;;;;;9.33;1.70;;;;;;;;;;5069162;28;19913;-55
2023/12/29 09:47:01;;;;;;;6.97;1.53;;;;;;;;;;5056589;28;20029;-55
2023/12/29 09:49:30;;;;;;;8.20;2.23;;;;;;;;;;5061165;28;20278;-54
2023/12/29 09:51:57;;;;;;;3.63;1.87;;;;;;;;;;5056817;28;20259;-54
2023/12/29 09:54:23;;;;;;;7.37;1.93;;;;;;;;;;5056305;28;20274;-49
2023/12/29 09:56:49;;;;;;;11.60;2.25;;;;;;;;;;5056524;28;20266;-53
2023/12/29 09:59:16;;;;;;;7.82;2.45;;;;;;;;;;5055606;28;20044;-55
2023/12/29 10:01:42;;;;;;;4.07;2.15;;;;;;;;;;5045886;28;20021;-56
2023/12/29 10:04:08;;;;;;;6.40;1.73;;;;;;;;;;5054849;28;20101;-54
2023/12/29 10:06:35;;;;;;;6.88;2.38;;;;;;;;;;5056552;28;20029;-52
2023/12/29 10:09:04;;;;;;;6.03;1.90;;;;;;;;;;5057156;28;20095;-53
2023/12/29 10:11:31;;;;;;;6.77;2.33;;;;;;;;;;5066269;28;20263;-51
2023/12/29 10:13:59;;;;;;;6.97;2.20;;;;;;;;;;5061738;28;20269;-51
2023/12/29 10:16:28;;;;;;;5.27;2.10;;;;;;;;;;5055871;28;20259;-53
2023/12/29 10:19:00;;;;;;;8.43;1.80;;;;;;;;;;5055868;28;20323;-54
2023/12/29 10:21:33;;;;;;;5.17;1.70;;;;;;;;;;5047867;28;20301;-53
2023/12/29 10:24:05;;;;;;;6.37;1.73;;;;;;;;;;5057912;28;20286;-56
2023/12/29 10:26:31;;;;;;;3.43;1.40;;;;;;;;;;5055875;28;20274;-55
2023/12/29 10:28:57;;;;;;;4.10;2.25;;;;;;;;;;5055845;28;20286;-52
2023/12/29 10:31:22;;;;;;;2.60;1.45;;;;;;;;;;5060619;28;20056;-57
2023/12/29 10:33:50;;;;;;;7.67;2.03;;;;;;;;;;5056149;28;20041;-53
2023/12/29 10:36:16;;;;;;;8.27;1.70;;;;;;;;;;5055596;28;20258;-54
2023/12/29 10:38:42;;;;;;;3.38;1.58;;;;;;;;;;5055938;28;20364;-56
2023/12/29 10:41:14;;;;;;;6.37;1.60;;;;;;;;;;5057212;28;20037;-56
2023/12/29 10:43:40;;;;;;;3.77;1.40;;;;;;;;;;5055883;28;20274;-55
2023/12/29 10:46:07;;;;;;;5.95;1.30;;;;;;;;;;5055414;28;20271;-52
2023/12/29 10:48:33;;;;;;;9.10;1.80;;;;;;;;;;5055353;28;20037;-51
2023/12/29 10:50:58;;;;;;;4.93;1.50;;;;;;;;;;5058159;28;20273;-52
2023/12/29 10:53:24;;;;;;;7.07;2.07;;;;;;;;;;5055061;28;20258;-53
2023/12/29 10:55:49;;;;;;;6.43;1.90;;;;;;;;;;5055218;28;20262;-55
2023/12/29 10:58:19;;;;;;;4.03;1.77;;;;;;;;;;5054891;28;20278;-55
2023/12/29 11:00:44;;;;;;;4.30;1.60;;;;;;;;;;5066732;28;20258;-55
2023/12/29 11:03:14;;;;;;;7.53;1.50;;;;;;;;;;5056852;28;20289;-54
2023/12/29 11:05:39;;;;;;;8.63;2.30;;;;;;;;;;5055638;28;20312;-54
2023/12/29 11:08:14;;;;;;;8.25;1.70;;;;;;;;;;5055324;28;20258;-53
2023/12/29 11:10:40;;;;;;;9.80;2.17;;;;;;;;;;5063982;28;20037;-56
2023/12/29 11:13:06;;;;;;;7.70;1.65;;;;;;;;;;5054998;28;20267;-54
2023/12/29 11:15:32;;;;;;;3.15;1.20;;;;;;;;;;5054888;28;20029;-52
2023/12/29 11:17:59;;;;;;;6.55;1.40;;;;;;;;;;5055024;28;20036;-57
2023/12/29 11:20:26;;;;;;;6.37;1.60;;;;;;;;;;5053801;28;20067;-55
2023/12/29 11:22:51;;;;;;;12.88;1.92;;;;;;;;;;5055106;28;20267;-54
2023/12/29 11:25:17;;;;;;;7.35;2.00;;;;;;;;;;5061355;28;20033;-52
2023/12/29 11:27:42;;;;;;;8.45;1.75;;;;;;;;;;5054949;28;20040;-54
2023/12/29 11:30:08;;;;;;;8.25;1.45;;;;;;;;;;5054686;28;20048;-56
2023/12/29 11:32:41;;;;;;;8.05;1.70;;;;;;;;;;5054560;28;20033;-55
2023/12/29 11:35:21;;;;;;;8.17;1.27;;;;;;;;;;5054735;28;20025;-56
2023/12/29 11:37:53;;;;;;;10.63;1.93;;;;;;;;;;5054541;28;20285;-55
2023/12/29 11:40:21;;;;;;;5.87;1.70;;;;;;;;;;5054188;28;20297;-49
2023/12/29 11:42:49;;;;;;;9.83;1.50;;;;;;;;;;5054384;28;20262;-55
2023/12/29 11:45:24;;;;;;;9.13;1.60;;;;;;;;;;5054556;28;20263;-56
2023/12/29 11:47:53;;;;;;;16.80;2.40;;;;;;;;;;5047646;28;20259;-54
2023/12/29 11:50:30;;;;;;;7.63;2.23;;;;;;;;;;5056795;28;20341;-54
2023/12/29 11:52:55;;;;;;;6.45;1.50;;;;;;;;;;5054827;28;20259;-55
2023/12/29 11:55:21;;;;;;;10.30;2.43;;;;;;;;;;5054401;28;20089;-55
2023/12/29 11:57:46;;;;;;;8.27;1.43;;;;;;;;;;5054561;28;20279;-54
2023/12/29 12:00:12;;;;;;;8.90;1.80;;;;;;;;;;5056078;28;20259;-56
2023/12/29 12:02:38;;;;;;;9.73;1.33;;;;;;;;;;5065180;28;20072;-55
2023/12/29 12:05:04;;;;;;;12.80;1.80;;;;;;;;;;5060924;28;20066;-56
2023/12/29 12:07:29;;;;;;;15.98;2.38;;;;;;;;;;5058049;28;20076;-55
2023/12/29 12:10:14;;;;;;;21.70;2.53;;;;;;;;;;5058374;28;20041;-56
2023/12/29 12:12:43;;;;;;;12.93;1.87;;;;;;;;;;5056119;28;20255;-56
2023/12/29 12:15:28;;;;;;;14.63;2.40;;;;;;;;;;5066555;28;20267;-57
2023/12/29 12:17:54;;;;;;;17.73;2.20;;;;;;;;;;5045397;28;20273;-55
2023/12/29 12:20:20;;;;;;;21.98;2.60;;;;;;;;;;5058883;28;20255;-55
2023/12/29 12:22:49;;;;;;;22.10;1.97;;;;;;;;;;5057845;28;20109;-62
2023/12/29 12:25:15;;;;;;;12.87;2.20;;;;;;;;;;5057473;28;20059;-55
2023/12/29 12:27:41;;;;;;;9.33;1.70;;;;;;;;;;5058057;28;20270;-57
2023/12/29 12:30:09;;;;;;;9.50;1.93;;;;;;;;;;5057915;28;20340;-57
2023/12/29 12:32:34;;;;;;;13.80;2.03;;;;;;;;;;5066792;28;20052;-56
2023/12/29 12:35:00;;;;;;;12.85;2.78;;;;;;;;;;5057588;28;20271;-52
2023/12/29 12:37:26;;;;;;;10.97;2.10;;;;;;;;;;5057739;28;20064;-51
2023/12/29 12:39:52;;;;;;;;;;;;;;;;;;5058071;28;20040;-56
2023/12/29 12:42:19;;;;;;;17.23;2.37;;;;;;;;;;5063630;28;20016;-55
2023/12/29 12:44:50;;;;;;;21.05;3.38;;;;;;;;;;5058863;28;20277;-56
2023/12/29 12:47:17;;;;;;;15.83;3.07;;;;;;;;;;5057570;28;20041;-57
2023/12/29 12:49:43;;;;;;;16.40;3.17;;;;;;;;;;5057015;28;20321;-54
2023/12/29 12:52:08;;;;;;;13.57;2.20;;;;;;;;;;5062740;28;20275;-55
2023/12/29 12:54:34;;;;;;;10.98;2.90;;;;;;;;;;5057301;28;20037;-54
2023/12/29 12:57:00;;;;;;;12.90;3.35;;;;;;;;;;5057448;28;20033;-54
2023/12/29 12:59:27;;;;;;;22.23;3.50;;;;;;;;;;5055846;28;20040;-53
2023/12/29 13:01:52;;;;;;;15.33;3.20;;;;;;;;;;5059111;28;20071;-53
2023/12/29 13:04:18;;;;;;;21.00;2.57;;;;;;;;;;5057315;28;20278;-52
2023/12/29 13:06:43;;;;;;;23.00;2.37;;;;;;;;;;5057239;28;20267;-53
2023/12/29 13:09:11;;;;;;;11.85;3.20;;;;;;;;;;5057192;28;20113;-55
2023/12/29 13:11:37;;;;;;;12.50;2.17;;;;;;;;;;5057649;28;20029;-55
2023/12/29 13:14:04;;;;;;;12.90;2.20;;;;;;;;;;5056941;28;20262;-53
2023/12/29 13:16:36;;;;;;;13.67;2.07;;;;;;;;;;5056459;28;20093;-53
2023/12/29 13:19:20;;;;;;;16.20;2.60;;;;;;;;;;5056518;28;20262;-55
2023/12/29 13:21:50;;;;;;;10.13;2.23;;;;;;;;;;5063971;28;20314;-55
2023/12/29 13:24:16;;;;;;;9.83;2.23;;;;;;;;;;5058278;28;20293;-56
2023/12/29 13:26:44;;;;;;;15.50;2.75;;;;;;;;;;5056955;28;20297;-56
2023/12/29 13:29:09;;;;;;;14.03;2.67;;;;;;;;;;5056715;28;20052;-55
2023/12/29 13:31:35;;;;;;;13.07;2.90;;;;;;;;;;5061540;28;20330;-56
2023/12/29 13:34:03;;;;;;;15.52;3.08;;;;;;;;;;5057093;28;20267;-56
2023/12/29 13:36:34;;;;;;;14.77;2.60;;;;;;;;;;5056168;28;20036;-56
2023/12/29 13:39:07;;;;;;;18.03;4.00;;;;;;;;;;5056635;28;20247;-55
2023/12/29 13:41:32;;;;;;;15.60;2.87;;;;;;;;;;5059316;28;20262;-56
2023/12/29 13:43:58;;;;;;;11.02;2.65;;;;;;;;;;5056239;28;20357;-57
2023/12/29 13:46:24;;;;;;;9.60;2.47;;;;;;;;;;5056047;28;20044;-56
2023/12/29 13:48:53;;;;;;;10.25;3.08;;;;;;;;;;5056211;28;20037;-56
2023/12/29 13:51:23;;;;;;;10.40;2.93;;;;;;;;;;5056291;28;20041;-55
2023/12/29 13:53:48;;;;;;;10.87;2.60;;;;;;;;;;5056474;28;20251;-55
2023/12/29 13:56:14;;;;;;;10.20;2.33;;;;;;;;;;5056335;28;20299;-57
2023/12/29 13:58:39;;;;;;;15.70;3.03;;;;;;;;;;5055646;28;20335;-55
2023/12/29 14:01:09;;;;;;;13.27;2.83;;;;;;;;;;5056144;28;20030;-56
2023/12/29 14:03:40;;;;;;;10.30;2.17;;;;;;;;;;5055767;28;20046;-54
2023/12/29 14:06:08;;;;;;;10.13;2.20;;;;;;;;;;5056101;28;20273;-56
2023/12/29 14:08:45;;;;;;;12.77;3.10;;;;;;;;;;5055710;28;20267;-53
2023/12/29 14:11:11;;;;;;;10.97;3.23;;;;;;;;;;5055427;28;20269;-54
2023/12/29 14:13:47;;;;;;;12.32;2.85;;;;;;;;;;5062423;28;20323;-53
2023/12/29 14:16:13;;;;;;;14.52;3.70;;;;;;;;;;5055483;28;20104;-57
2023/12/29 14:18:47;;;;;;;16.73;3.40;;;;;;;;;;5056099;28;20025;-49
2023/12/29 14:21:23;;;;;;;15.20;3.27;;;;;;;;;;5043683;28;20017;-55
2023/12/29 14:24:08;;;;;;;19.27;4.03;;;;;;;;;;5058506;28;20266;-51
2023/12/29 14:26:34;;;;;;;17.43;2.87;;;;;;;;;;5064211;28;20296;-54
2023/12/29 14:29:00;;;;;;;15.83;2.70;;;;;;;;;;5055798;28;20278;-54